Waco's Hourly Summary for Monday, April 17, 2017
Hour Temp
(f)
RH
(%)
Solar Rad.
(MJ/m2)
Rainfall
(in)
Wind
(mph)
4/17/2017 12:00 AM 72 72 0 0 3.97
4/17/2017 1:00 AM 72 74 0 0 6.5
4/17/2017 2:00 AM 71 74 0 0 6.45
4/17/2017 3:00 AM 70 77 0 0 4.73
4/17/2017 4:00 AM 68 83 0 0 3.46
4/17/2017 5:00 AM 68 86 0 0 2.33
4/17/2017 6:00 AM 68 86 0 0 2.16
4/17/2017 7:00 AM 68 89 0 0 2.8
4/17/2017 8:00 AM 68 89 0.08 0 2.43
4/17/2017 9:00 AM 70 81 0.63 0 3.32
4/17/2017 10:00 AM 72 73 1.13 0 5.68
4/17/2017 11:00 AM 75 64 1.98 0 6.43
4/17/2017 12:00 PM 77 57 2.11 0 5.77
4/17/2017 1:00 PM 80 56 2.76 0 4.84
4/17/2017 2:00 PM 80 53 2.44 0 4.26
4/17/2017 3:00 PM 81 52 2.68 0 5.07
4/17/2017 4:00 PM 80 53 1.62 0 4.38
4/17/2017 5:00 PM 80 51 0.9 0 3.72
4/17/2017 6:00 PM 79 55 0.59 0 4.5
4/17/2017 7:00 PM 67 61 0.05 0.02 7.33
4/17/2017 8:00 PM 63 86 0.01 0.03 4.34
4/17/2017 9:00 PM 64 86 0 0.03 3.33
4/17/2017 10:00 PM 64 87 0 0 4.43
4/17/2017 11:00 PM 64 89 0 0 6.73
Data Summary 71 72 16.98 0.08 4.54